createdAt,value
2022-09-03T00:05:52.256Z,38.66
2022-09-03T00:08:40.789Z,38.82
2022-09-03T00:11:13.808Z,38.90
2022-09-03T00:13:53.747Z,38.90
2022-09-03T00:16:27.324Z,38.89
2022-09-03T00:19:03.794Z,39.10
2022-09-03T00:21:52.880Z,38.92
2022-09-03T00:24:23.417Z,38.93
2022-09-03T00:26:56.020Z,38.93
2022-09-03T00:29:37.104Z,39.24
2022-09-03T00:32:11.098Z,39.18
2022-09-03T00:34:48.971Z,39.05
2022-09-03T00:37:16.745Z,39.05
2022-09-03T00:39:44.573Z,39.14
2022-09-03T00:42:27.248Z,38.99
2022-09-03T00:45:01.133Z,38.83
2022-09-03T00:47:57.987Z,39.10
2022-09-03T00:50:31.147Z,38.85
2022-09-03T00:53:04.042Z,39.24
2022-09-03T00:55:34.338Z,39.21
2022-09-03T00:58:21.744Z,39.51
2022-09-03T01:00:53.251Z,39.32
2022-09-03T01:03:24.666Z,39.53
2022-09-03T01:06:01.815Z,39.67
2022-09-03T01:09:12.394Z,39.85
2022-09-03T01:11:59.927Z,40.03
2022-09-03T01:14:37.733Z,40.19
2022-09-03T01:17:37.602Z,40.39
2022-09-03T01:20:30.490Z,40.61
2022-09-03T01:23:22.396Z,40.63
2022-09-03T01:26:02.158Z,40.72
2022-09-03T01:28:42.636Z,40.60
2022-09-03T01:31:27.186Z,40.82
2022-09-03T01:34:18.463Z,41.07
2022-09-03T01:37:10.501Z,41.14
2022-09-03T01:40:07.434Z,41.32
2022-09-03T01:43:01.359Z,41.50
2022-09-03T01:45:32.495Z,41.26
2022-09-03T01:48:27.351Z,41.31
2022-09-03T01:51:23.839Z,41.27
2022-09-03T01:54:18.088Z,41.33
2022-09-03T01:57:35.886Z,41.54
2022-09-03T02:00:13.460Z,41.62
2022-09-03T02:02:44.424Z,41.58
2022-09-03T02:05:14.519Z,41.91
2022-09-03T02:07:46.863Z,41.78
2022-09-03T02:10:18.176Z,41.86
2022-09-03T02:12:55.408Z,42.18
2022-09-03T02:15:25.817Z,42.21
2022-09-03T02:17:57.455Z,42.23
2022-09-03T02:20:28.374Z,42.25
2022-09-03T02:22:57.924Z,42.05
2022-09-03T02:25:35.979Z,42.37
2022-09-03T02:28:06.606Z,42.50
2022-09-03T02:30:44.080Z,42.26
2022-09-03T02:33:11.543Z,42.70
2022-09-03T02:35:40.846Z,42.55
2022-09-03T02:38:18.061Z,42.77
2022-09-03T02:40:46.551Z,42.69
2022-09-03T02:43:20.985Z,42.88
2022-09-03T02:45:57.843Z,42.99
2022-09-03T02:48:25.832Z,42.99
2022-09-03T02:50:53.239Z,42.96
2022-09-03T02:53:20.814Z,42.90
2022-09-03T02:55:48.263Z,43.24
2022-09-03T02:58:15.558Z,43.40
2022-09-03T03:00:43.122Z,43.42
2022-09-03T03:03:10.489Z,43.49
2022-09-03T03:05:46.902Z,43.81
2022-09-03T03:08:21.356Z,43.53
2022-09-03T03:10:49.713Z,43.75
2022-09-03T03:13:17.041Z,43.96
2022-09-03T03:15:45.095Z,43.83
2022-09-03T03:18:14.203Z,43.81
2022-09-03T03:20:42.642Z,44.26
2022-09-03T03:23:11.013Z,44.57
2022-09-03T03:25:39.974Z,44.23
2022-09-03T03:28:08.140Z,44.50
2022-09-03T03:30:39.993Z,44.51
2022-09-03T03:33:08.313Z,44.33
2022-09-03T03:35:36.848Z,44.43
2022-09-03T03:38:05.231Z,44.55
2022-09-03T03:40:32.702Z,44.54
2022-09-03T03:42:59.923Z,44.80
2022-09-03T03:45:27.110Z,44.64
2022-09-03T03:47:58.490Z,45.13
2022-09-03T03:50:26.206Z,45.09
2022-09-03T03:52:53.449Z,45.00
2022-09-03T03:55:20.732Z,45.05
2022-09-03T03:57:47.907Z,44.96
2022-09-03T04:00:16.064Z,44.99
2022-09-03T04:02:43.639Z,45.17
2022-09-03T04:05:11.561Z,45.17
2022-09-03T04:07:39.071Z,45.34
2022-09-03T04:10:06.983Z,45.39
2022-09-03T04:12:34.274Z,45.48
2022-09-03T04:15:01.870Z,45.53
2022-09-03T04:17:32.176Z,45.42
2022-09-03T04:19:59.701Z,45.39
2022-09-03T04:22:29.848Z,45.56
2022-09-03T04:24:57.222Z,45.42
2022-09-03T04:27:24.781Z,45.44
2022-09-03T04:29:52.091Z,45.29
2022-09-03T04:32:37.743Z,45.46
2022-09-03T04:35:05.248Z,45.37
2022-09-03T04:37:33.515Z,45.28
2022-09-03T04:40:00.849Z,45.43
2022-09-03T04:42:28.292Z,45.55
2022-09-03T04:44:55.477Z,45.40
2022-09-03T04:47:22.767Z,45.18
2022-09-03T04:49:49.995Z,45.42
2022-09-03T04:52:17.441Z,44.98
2022-09-03T04:54:44.905Z,45.02
2022-09-03T04:57:12.248Z,44.62
2022-09-03T04:59:41.286Z,44.35
2022-09-03T05:02:09.872Z,44.09
2022-09-03T05:04:37.333Z,44.12
2022-09-03T05:07:04.731Z,43.79
2022-09-03T05:09:32.171Z,43.84
2022-09-03T05:11:59.498Z,43.71
2022-09-03T05:14:27.060Z,43.77
2022-09-03T05:16:56.029Z,43.53
2022-09-03T05:19:23.423Z,43.29
2022-09-03T05:21:50.716Z,43.23
2022-09-03T05:24:18.798Z,42.79
2022-09-03T05:26:45.996Z,42.84
2022-09-03T05:29:14.499Z,42.35
2022-09-03T05:31:42.013Z,42.66
2022-09-03T05:34:10.272Z,42.60
2022-09-03T05:36:43.609Z,42.57
2022-09-03T05:39:10.914Z,42.18
2022-09-03T05:41:38.183Z,42.09
2022-09-03T05:44:06.180Z,41.82
2022-09-03T05:46:34.461Z,41.70
2022-09-03T05:49:03.741Z,41.57
2022-09-03T05:51:32.488Z,41.60
2022-09-03T05:54:00.229Z,41.48
2022-09-03T05:56:30.782Z,41.28
2022-09-03T05:59:05.803Z,41.59
2022-09-03T06:01:35.582Z,41.25
2022-09-03T06:04:14.113Z,41.27
2022-09-03T06:06:44.341Z,41.16
2022-09-03T06:09:30.726Z,41.49
2022-09-03T06:11:58.097Z,41.37
2022-09-03T06:14:27.030Z,41.45
2022-09-03T06:16:55.900Z,41.46
2022-09-03T06:19:23.438Z,41.23
2022-09-03T06:21:50.756Z,41.18
2022-09-03T06:24:28.412Z,41.17
2022-09-03T06:26:57.843Z,40.91
2022-09-03T06:29:25.283Z,40.55
2022-09-03T06:31:54.108Z,40.61
2022-09-03T06:34:22.894Z,40.10
2022-09-03T06:36:50.795Z,40.24
2022-09-03T06:39:18.043Z,40.14
2022-09-03T06:41:48.404Z,40.20
2022-09-03T06:44:15.795Z,39.72
2022-09-03T06:46:43.105Z,39.80
2022-09-03T06:49:11.746Z,39.11
2022-09-03T06:51:43.466Z,38.65
2022-09-03T06:54:12.704Z,38.92
2022-09-03T06:56:41.752Z,38.39
2022-09-03T06:59:14.713Z,37.51
2022-09-03T07:01:45.524Z,37.73
2022-09-03T07:04:16.857Z,37.63
2022-09-03T07:06:47.365Z,37.55
2022-09-03T07:09:15.979Z,37.54
2022-09-03T07:11:47.721Z,37.64
2022-09-03T07:14:19.863Z,37.69
2022-09-03T07:16:48.792Z,37.34
2022-09-03T07:19:16.353Z,37.05
2022-09-03T07:21:49.199Z,37.45
2022-09-03T07:24:18.749Z,37.75
2022-09-03T07:26:47.337Z,37.42
2022-09-03T07:29:16.166Z,37.64
2022-09-03T07:31:44.375Z,37.34
2022-09-03T07:34:13.731Z,37.53
2022-09-03T07:36:43.385Z,37.79
2022-09-03T07:39:12.626Z,37.45
2022-09-03T07:41:45.961Z,37.45
2022-09-03T07:44:15.531Z,37.34
2022-09-03T07:46:45.603Z,37.44
2022-09-03T07:49:13.322Z,37.66
2022-09-03T07:51:41.097Z,37.62
2022-09-03T07:54:11.424Z,37.71
2022-09-03T07:56:41.372Z,37.67
2022-09-03T07:59:09.328Z,37.79
2022-09-03T08:01:41.182Z,37.41
2022-09-03T08:04:09.964Z,37.91
2022-09-03T08:06:38.570Z,37.69
2022-09-03T08:09:08.844Z,37.65
2022-09-03T08:11:41.778Z,37.54
2022-09-03T08:14:14.245Z,37.45
2022-09-03T08:16:44.060Z,37.63
2022-09-03T08:19:13.531Z,37.54
2022-09-03T08:21:42.419Z,37.14
2022-09-03T08:24:11.800Z,36.97
2022-09-03T08:26:46.272Z,37.24
2022-09-03T08:29:15.058Z,37.17
2022-09-03T08:31:43.213Z,37.08
2022-09-03T08:34:12.032Z,37.03
2022-09-03T08:36:41.878Z,36.62
2022-09-03T08:39:11.329Z,36.65
2022-09-03T08:41:44.820Z,36.48
2022-09-03T08:44:26.386Z,36.56
2022-09-03T08:46:56.398Z,36.70
2022-09-03T08:49:47.275Z,36.30
2022-09-03T08:52:32.655Z,35.79
2022-09-03T08:55:17.748Z,35.95
2022-09-03T08:57:49.233Z,36.14
2022-09-03T09:00:18.331Z,36.20
2022-09-03T09:03:06.144Z,35.92
2022-09-03T09:05:48.171Z,35.36
2022-09-03T09:08:15.537Z,35.28
2022-09-03T09:10:49.765Z,35.04
2022-09-03T09:13:37.005Z,35.17
2022-09-03T09:16:37.203Z,35.54
2022-09-03T09:19:32.539Z,35.00
2022-09-03T09:22:05.480Z,34.79
2022-09-03T09:24:53.587Z,34.57
2022-09-03T09:27:20.879Z,34.97
2022-09-03T09:29:50.189Z,34.31
2022-09-03T09:32:21.772Z,34.24
2022-09-03T09:34:52.321Z,34.24
2022-09-03T09:37:20.692Z,33.79
2022-09-03T09:40:00.014Z,33.68
2022-09-03T09:42:30.133Z,33.91
2022-09-03T09:44:57.502Z,32.63
2022-09-03T09:47:34.225Z,32.29
2022-09-03T09:50:03.858Z,32.64
2022-09-03T09:52:31.820Z,32.73
2022-09-03T09:55:19.572Z,32.77
2022-09-03T09:57:47.043Z,32.56
2022-09-03T10:00:18.161Z,32.23
2022-09-03T10:02:51.363Z,32.07
2022-09-03T10:05:33.414Z,32.12
2022-09-03T10:08:04.960Z,32.31
2022-09-03T10:10:50.216Z,31.88
2022-09-03T10:13:42.004Z,31.40
2022-09-03T10:16:21.763Z,30.77
2022-09-03T10:19:10.507Z,30.77
2022-09-03T10:22:06.543Z,30.66
2022-09-03T10:25:08.318Z,30.77
2022-09-03T10:27:36.626Z,30.93
2022-09-03T10:30:08.969Z,30.78
2022-09-03T10:32:58.807Z,30.46
2022-09-03T10:35:37.074Z,30.58
2022-09-03T10:38:17.679Z,30.43
2022-09-03T10:41:05.513Z,30.17
2022-09-03T10:43:33.343Z,30.63
2022-09-03T10:46:27.043Z,29.95
2022-09-03T10:49:10.701Z,29.82
2022-09-03T10:51:53.188Z,29.39
2022-09-03T10:54:29.159Z,29.74
2022-09-03T10:57:20.888Z,29.39
2022-09-03T11:00:20.302Z,29.63
2022-09-03T11:03:10.606Z,29.59
2022-09-03T11:05:45.512Z,29.50
2022-09-03T11:08:22.195Z,29.48
2022-09-03T11:11:12.275Z,29.05
2022-09-03T11:13:47.243Z,28.78
2022-09-03T11:16:21.314Z,28.91
2022-09-03T11:19:04.558Z,29.11
2022-09-03T11:21:34.614Z,29.17
2022-09-03T11:24:16.328Z,29.34
2022-09-03T11:26:56.787Z,29.40
2022-09-03T11:29:57.580Z,28.85
2022-09-03T11:32:33.440Z,28.75
2022-09-03T11:35:01.890Z,29.05
2022-09-03T11:37:31.273Z,29.34
2022-09-03T11:40:20.228Z,28.89
2022-09-03T11:42:48.396Z,28.85
2022-09-03T11:45:27.924Z,28.98
2022-09-03T11:47:55.227Z,28.97
2022-09-03T11:50:30.569Z,29.08
2022-09-03T11:53:10.650Z,28.60
2022-09-03T11:55:54.925Z,28.49
2022-09-03T11:58:22.724Z,28.28
2022-09-03T12:00:55.733Z,28.81
2022-09-03T12:03:41.791Z,28.57
2022-09-03T12:06:20.280Z,28.40
2022-09-03T12:08:53.811Z,28.80
2022-09-03T12:11:43.718Z,28.77
2022-09-03T12:14:21.865Z,28.74
2022-09-03T12:17:15.231Z,28.39
2022-09-03T12:20:13.840Z,28.30
2022-09-03T12:22:42.455Z,28.27
2022-09-03T12:25:15.307Z,28.69
2022-09-03T12:27:45.928Z,28.42
2022-09-03T12:30:31.132Z,28.17
2022-09-03T12:33:11.206Z,28.08
2022-09-03T12:38:27.711Z,28.28
2022-09-03T12:43:54.206Z,28.29
2022-09-03T12:46:33.139Z,28.03
2022-09-03T12:52:05.784Z,28.21
2022-09-03T12:54:38.154Z,27.67
2022-09-03T12:57:05.959Z,27.85
2022-09-03T12:59:37.521Z,27.82
2022-09-03T13:02:28.621Z,27.57
2022-09-03T13:04:56.932Z,27.63
2022-09-03T13:07:27.701Z,27.86
2022-09-03T13:10:04.008Z,27.47
2022-09-03T13:12:43.555Z,27.67
2022-09-03T13:15:21.298Z,27.43
2022-09-03T13:18:46.612Z,27.23
2022-09-03T13:21:32.586Z,27.29
2022-09-03T13:24:36.802Z,27.04
2022-09-03T13:27:26.417Z,27.31
2022-09-03T13:30:28.909Z,27.04
2022-09-03T13:33:22.603Z,26.97
2022-09-03T13:36:04.224Z,27.06
2022-09-03T13:38:52.004Z,27.15
2022-09-03T13:41:53.587Z,27.38
2022-09-03T13:44:42.520Z,27.38
2022-09-03T13:47:19.243Z,27.28
2022-09-03T13:50:23.948Z,26.97
2022-09-03T13:52:53.558Z,26.69
2022-09-03T13:55:51.922Z,26.93
2022-09-03T13:58:45.527Z,26.24
2022-09-03T14:01:59.590Z,26.66
2022-09-03T14:04:57.798Z,26.05
2022-09-03T14:07:49.427Z,25.86
2022-09-03T14:10:48.588Z,25.95
2022-09-03T14:13:51.821Z,25.57
2022-09-03T14:16:56.767Z,25.79
2022-09-03T14:19:28.078Z,26.35
2022-09-03T14:22:25.130Z,25.97
2022-09-03T14:25:22.443Z,25.70
2022-09-03T14:27:50.675Z,25.71
2022-09-03T14:31:02.052Z,25.37
2022-09-03T14:33:44.625Z,25.70
2022-09-03T14:36:24.435Z,25.64
2022-09-03T14:39:26.713Z,25.46
2022-09-03T14:42:37.525Z,25.45
2022-09-03T14:45:56.144Z,25.73
2022-09-03T14:48:49.680Z,25.85
2022-09-03T14:51:26.131Z,26.10
2022-09-03T14:54:16.102Z,25.69
2022-09-03T14:56:50.995Z,25.94
2022-09-03T14:59:36.547Z,25.82
2022-09-03T15:02:39.313Z,25.55
2022-09-03T15:05:12.302Z,25.79
2022-09-03T15:07:48.594Z,25.48
2022-09-03T15:10:32.125Z,25.51
2022-09-03T15:13:09.004Z,25.61
2022-09-03T15:15:42.647Z,25.69
2022-09-03T15:18:18.721Z,25.61
2022-09-03T15:20:53.161Z,25.52
2022-09-03T15:23:52.265Z,25.29
2022-09-03T15:26:59.386Z,25.34
2022-09-03T15:29:51.756Z,25.15
2022-09-03T15:32:27.725Z,25.20
2022-09-03T15:34:55.012Z,25.42
2022-09-03T15:37:28.683Z,25.09
2022-09-03T15:40:08.435Z,25.12
2022-09-03T15:42:36.879Z,25.38
2022-09-03T15:45:21.329Z,25.19
2022-09-03T15:48:01.750Z,25.12
2022-09-03T15:50:37.221Z,25.17
2022-09-03T15:53:26.200Z,25.05
2022-09-03T15:56:15.136Z,25.13
2022-09-03T15:59:00.538Z,25.24
2022-09-03T16:01:48.674Z,25.07
2022-09-03T16:04:16.125Z,25.43
2022-09-03T16:07:08.262Z,25.37
2022-09-03T16:13:05.253Z,25.43
2022-09-03T16:15:58.780Z,25.30
2022-09-03T16:18:36.180Z,25.26
2022-09-03T16:21:10.301Z,25.41
2022-09-03T16:23:55.503Z,25.47
2022-09-03T16:26:33.800Z,25.77
2022-09-03T16:29:14.007Z,25.69
2022-09-03T16:32:17.560Z,25.65
2022-09-03T16:35:00.217Z,25.78
2022-09-03T16:37:46.012Z,25.90
2022-09-03T16:40:56.875Z,25.80
2022-09-03T16:43:41.606Z,26.18
2022-09-03T16:46:09.141Z,26.33
2022-09-03T16:49:04.360Z,26.05
2022-09-03T16:51:46.798Z,25.86
2022-09-03T16:54:42.478Z,26.18
2022-09-03T16:57:43.692Z,26.26
2022-09-03T17:00:16.452Z,26.46
2022-09-03T17:03:02.096Z,26.44
2022-09-03T17:05:36.293Z,26.62
2022-09-03T17:08:18.867Z,26.53
2022-09-03T17:11:01.300Z,26.59
2022-09-03T17:13:46.632Z,26.63
2022-09-03T17:16:24.756Z,26.72
2022-09-03T17:19:00.074Z,26.68
2022-09-03T17:22:06.167Z,26.72
2022-09-03T17:24:39.419Z,26.73
2022-09-03T17:27:21.278Z,26.89
2022-09-03T17:29:57.874Z,26.76
2022-09-03T17:32:57.721Z,26.86
2022-09-03T17:35:38.276Z,26.97
2022-09-03T17:38:17.985Z,26.96
2022-09-03T17:41:00.554Z,26.96
2022-09-03T17:43:39.973Z,27.05
2022-09-03T17:46:39.451Z,26.99
2022-09-03T17:49:08.911Z,27.02
2022-09-03T17:52:00.233Z,27.20
2022-09-03T17:54:49.813Z,26.97
2022-09-03T17:57:20.196Z,27.21
2022-09-03T17:59:56.476Z,27.30
2022-09-03T18:02:58.720Z,27.27
2022-09-03T18:05:44.350Z,27.34
2022-09-03T18:08:22.204Z,27.52
2022-09-03T18:11:14.606Z,27.45
2022-09-03T18:14:12.997Z,27.40
2022-09-03T18:17:15.533Z,27.30
2022-09-03T18:20:07.118Z,27.34
2022-09-03T18:23:15.395Z,27.41
2022-09-03T18:26:05.804Z,27.53
2022-09-03T18:29:17.702Z,27.60
2022-09-03T18:32:03.969Z,27.60
2022-09-03T18:34:55.198Z,27.69
2022-09-03T18:37:43.600Z,27.70
2022-09-03T18:40:41.252Z,27.69
2022-09-03T18:43:48.504Z,27.71
2022-09-03T18:50:07.652Z,27.58
2022-09-03T18:53:26.581Z,27.33
2022-09-03T18:56:57.293Z,27.49
2022-09-03T18:59:53.170Z,27.62
2022-09-03T19:02:56.434Z,27.66
2022-09-03T19:05:54.162Z,27.57
2022-09-03T19:08:51.448Z,27.51
2022-09-03T19:11:43.236Z,27.49
2022-09-03T19:14:44.471Z,27.59
2022-09-03T19:17:51.305Z,27.35
2022-09-03T19:20:49.175Z,27.50
2022-09-03T19:23:37.062Z,27.52
2022-09-03T19:26:43.328Z,27.54
2022-09-03T19:30:03.843Z,27.40
2022-09-03T19:33:23.124Z,27.63
2022-09-03T19:36:17.967Z,27.60
2022-09-03T19:39:30.283Z,27.55
2022-09-03T19:42:19.160Z,27.55
2022-09-03T19:45:07.819Z,27.66
2022-09-03T19:48:09.181Z,27.67
2022-09-03T19:51:01.998Z,27.73
2022-09-03T19:53:50.508Z,27.67
2022-09-03T19:56:46.154Z,27.71
2022-09-03T19:59:39.283Z,27.69
2022-09-03T20:02:25.175Z,27.73
2022-09-03T20:05:18.337Z,27.83
2022-09-03T20:08:08.692Z,27.72
2022-09-03T20:10:36.918Z,27.54
2022-09-03T20:13:10.146Z,27.75
2022-09-03T20:16:01.089Z,27.80
2022-09-03T20:19:05.100Z,27.83
2022-09-03T20:21:43.907Z,27.66
2022-09-03T20:24:21.496Z,27.57
2022-09-03T20:26:57.992Z,27.79
2022-09-03T20:29:54.964Z,27.69
2022-09-03T20:32:47.505Z,27.50
2022-09-03T20:35:46.564Z,27.44
2022-09-03T20:38:53.784Z,27.40
2022-09-03T20:41:26.083Z,27.42
2022-09-03T20:44:13.195Z,27.50
2022-09-03T20:46:48.790Z,27.64
2022-09-03T20:49:53.234Z,27.53
2022-09-03T20:52:46.021Z,27.61
2022-09-03T20:55:23.799Z,27.52
2022-09-03T20:58:06.261Z,27.48
2022-09-03T21:00:58.135Z,27.59
2022-09-03T21:03:37.625Z,27.53
2022-09-03T21:06:20.632Z,27.53
2022-09-03T21:09:13.041Z,27.40
2022-09-03T21:11:55.436Z,27.61
2022-09-03T21:14:38.963Z,27.65
2022-09-03T21:17:18.538Z,27.52
2022-09-03T21:20:26.906Z,27.40
2022-09-03T21:23:23.968Z,27.57
2022-09-03T21:26:04.486Z,27.61
2022-09-03T21:28:56.032Z,27.37
2022-09-03T21:31:32.239Z,27.37
2022-09-03T21:34:12.061Z,27.44
2022-09-03T21:36:43.391Z,27.54
2022-09-03T21:39:20.241Z,27.74
2022-09-03T21:41:58.142Z,27.57
2022-09-03T21:44:36.244Z,27.68
2022-09-03T21:47:09.998Z,27.50
2022-09-03T21:49:57.483Z,27.67
2022-09-03T21:52:52.279Z,27.75
2022-09-03T21:55:46.671Z,27.68
2022-09-03T21:58:16.793Z,27.62
2022-09-03T22:00:46.244Z,27.80
2022-09-03T22:03:14.200Z,27.72
2022-09-03T22:05:57.516Z,27.78
2022-09-03T22:08:39.290Z,27.97
2022-09-03T22:11:16.495Z,27.93
2022-09-03T22:13:54.536Z,27.75
2022-09-03T22:16:39.401Z,28.13
2022-09-03T22:19:09.286Z,28.20
2022-09-03T22:21:44.494Z,28.20
2022-09-03T22:24:25.687Z,28.29
2022-09-03T22:26:58.381Z,28.28
2022-09-03T22:29:50.328Z,28.36
2022-09-03T22:32:34.089Z,28.36
2022-09-03T22:35:16.369Z,28.44
2022-09-03T22:37:52.193Z,28.55
2022-09-03T22:40:25.137Z,28.74
2022-09-03T22:43:11.851Z,28.73
2022-09-03T22:46:08.346Z,28.60
2022-09-03T22:48:44.756Z,28.88
2022-09-03T22:51:13.672Z,29.02
2022-09-03T22:53:50.119Z,28.92
2022-09-03T22:56:24.555Z,29.01
2022-09-03T22:59:02.844Z,28.69
2022-09-03T23:02:03.773Z,29.07
2022-09-03T23:04:49.237Z,29.01
2022-09-03T23:07:54.814Z,29.25
2022-09-03T23:10:34.277Z,29.60
2022-09-03T23:13:19.037Z,29.63
2022-09-03T23:15:56.698Z,29.49
2022-09-03T23:18:27.363Z,29.50
2022-09-03T23:21:31.069Z,29.61
2022-09-03T23:24:16.748Z,29.68
2022-09-03T23:26:43.897Z,29.78
2022-09-03T23:29:26.475Z,29.64
2022-09-03T23:31:57.718Z,29.75
2022-09-03T23:34:26.091Z,29.77
2022-09-03T23:40:14.664Z,29.64
2022-09-03T23:43:03.744Z,29.80
2022-09-03T23:45:55.724Z,29.83
2022-09-03T23:48:37.727Z,29.91
2022-09-03T23:51:35.868Z,29.94
2022-09-03T23:54:25.221Z,29.95
2022-09-03T23:57:24.647Z,30.11
